createdAt,value
2019-02-27T00:00:43.818Z,100.00
2019-02-27T00:03:11.276Z,100.00
2019-02-27T00:05:41.811Z,100.00
2019-02-27T00:08:11.559Z,100.00
2019-02-27T00:10:41.134Z,100.00
2019-02-27T00:13:10.418Z,100.00
2019-02-27T00:15:39.735Z,100.00
2019-02-27T00:18:09.017Z,100.00
2019-02-27T00:20:38.396Z,100.00
2019-02-27T00:23:07.715Z,100.00
2019-02-27T00:25:36.992Z,100.00
2019-02-27T00:28:06.296Z,100.00
2019-02-27T00:30:37.925Z,100.00
2019-02-27T00:33:06.863Z,100.00
2019-02-27T00:35:38.663Z,100.00
2019-02-27T00:38:07.193Z,100.00
2019-02-27T00:40:39.326Z,100.00
2019-02-27T00:43:07.471Z,100.00
2019-02-27T00:45:39.633Z,100.00
2019-02-27T00:48:07.752Z,100.00
2019-02-27T00:50:39.198Z,100.00
2019-02-27T00:53:08.136Z,100.00
2019-02-27T00:55:39.301Z,100.00
2019-02-27T00:58:08.431Z,100.00
2019-02-27T01:00:39.358Z,100.00
2019-02-27T01:03:08.861Z,100.00
2019-02-27T01:05:40.954Z,100.00
2019-02-27T01:08:09.138Z,100.00
2019-02-27T01:10:38.516Z,100.00
2019-02-27T01:13:07.909Z,100.00
2019-02-27T01:15:37.350Z,100.00
2019-02-27T01:18:06.672Z,100.00
2019-02-27T01:20:35.977Z,100.00
2019-02-27T01:23:05.333Z,100.00
2019-02-27T01:25:34.772Z,100.00
2019-02-27T01:28:04.358Z,100.00
2019-02-27T01:30:33.712Z,100.00
2019-02-27T01:33:04.153Z,100.00
2019-02-27T01:35:34.127Z,100.00
2019-02-27T01:38:05.322Z,100.00
2019-02-27T01:40:34.707Z,100.00
2019-02-27T01:43:06.341Z,100.00
2019-02-27T01:45:35.270Z,100.00
2019-02-27T01:48:08.953Z,100.00
2019-02-27T01:50:37.212Z,100.00
2019-02-27T01:53:07.325Z,100.00
2019-02-27T01:55:38.115Z,100.00
2019-02-27T01:58:09.507Z,100.00
2019-02-27T02:00:39.062Z,100.00
2019-02-27T02:03:08.344Z,100.00
2019-02-27T02:05:37.716Z,100.00
2019-02-27T02:08:13.616Z,100.00
2019-02-27T02:10:39.714Z,100.00
2019-02-27T02:13:15.145Z,100.00
2019-02-27T02:16:02.579Z,100.00
2019-02-27T02:19:05.327Z,100.00
2019-02-27T02:21:54.264Z,100.00
2019-02-27T02:24:32.693Z,100.00
2019-02-27T02:27:17.138Z,100.00
2019-02-27T02:29:53.128Z,100.00
2019-02-27T02:32:44.267Z,100.00
2019-02-27T02:35:37.381Z,100.00
2019-02-27T02:38:30.540Z,100.00
2019-02-27T02:41:17.317Z,100.00
2019-02-27T02:44:01.548Z,100.00
2019-02-27T02:46:52.082Z,100.00
2019-02-27T02:49:42.608Z,100.00
2019-02-27T02:52:13.603Z,100.00
2019-02-27T02:55:14.541Z,100.00
2019-02-27T02:57:46.889Z,100.00
2019-02-27T03:00:46.366Z,100.00
2019-02-27T03:03:24.207Z,100.00
2019-02-27T03:06:15.702Z,100.00
2019-02-27T03:09:04.419Z,100.00
2019-02-27T03:12:01.036Z,100.00
2019-02-27T03:14:33.361Z,100.00
2019-02-27T03:17:17.970Z,100.00
2019-02-27T03:19:51.416Z,100.00
2019-02-27T03:22:44.267Z,100.00
2019-02-27T03:25:47.963Z,100.00
2019-02-27T03:28:32.123Z,100.00
2019-02-27T03:31:18.040Z,100.00
2019-02-27T03:34:05.520Z,100.00
2019-02-27T03:36:35.993Z,100.00
2019-02-27T03:39:12.261Z,100.00
2019-02-27T03:42:07.218Z,100.00
2019-02-27T03:44:42.432Z,100.00
2019-02-27T03:47:20.354Z,100.00
2019-02-27T03:50:04.693Z,100.00
2019-02-27T03:52:53.709Z,100.00
2019-02-27T03:55:34.655Z,100.00
2019-02-27T03:58:30.683Z,100.00
2019-02-27T04:01:19.992Z,100.00
2019-02-27T04:04:21.145Z,100.00
2019-02-27T04:07:10.385Z,100.00
2019-02-27T04:09:40.766Z,100.00
2019-02-27T04:12:10.138Z,100.00
2019-02-27T04:14:42.059Z,100.00
2019-02-27T04:17:10.477Z,100.00
2019-02-27T04:19:40.475Z,100.00
2019-02-27T04:22:10.256Z,100.00
2019-02-27T04:24:39.710Z,100.00
2019-02-27T04:27:09.008Z,100.00
2019-02-27T04:29:41.129Z,100.00
2019-02-27T04:32:12.080Z,100.00
2019-02-27T04:34:40.317Z,100.00
2019-02-27T04:37:09.640Z,100.00
2019-02-27T04:39:38.923Z,100.00
2019-02-27T04:42:08.237Z,100.00
2019-02-27T04:44:38.897Z,100.00
2019-02-27T04:47:09.000Z,100.00
2019-02-27T04:49:38.465Z,100.00
2019-02-27T04:52:07.746Z,100.00
2019-02-27T04:54:41.299Z,100.00
2019-02-27T04:57:08.029Z,100.00
2019-02-27T04:59:37.381Z,100.00
2019-02-27T05:02:06.682Z,100.00
2019-02-27T05:04:36.356Z,100.00
2019-02-27T05:07:05.672Z,100.00
2019-02-27T05:09:34.983Z,100.00
2019-02-27T05:12:04.296Z,100.00
2019-02-27T05:14:33.590Z,100.00
2019-02-27T05:17:02.901Z,100.00
2019-02-27T05:19:32.243Z,100.00
2019-02-27T05:22:01.553Z,100.00
2019-02-27T05:24:30.871Z,100.00
2019-02-27T05:27:00.831Z,100.00
2019-02-27T05:29:30.826Z,100.00
2019-02-27T05:32:00.221Z,100.00
2019-02-27T05:34:29.519Z,100.00
2019-02-27T05:36:58.819Z,100.00
2019-02-27T05:39:28.139Z,100.00
2019-02-27T05:41:57.456Z,100.00
2019-02-27T05:44:26.768Z,100.00
2019-02-27T05:46:56.051Z,100.00
2019-02-27T05:49:27.370Z,100.00
2019-02-27T05:51:56.428Z,100.00
2019-02-27T05:54:25.735Z,100.00
2019-02-27T05:56:55.018Z,100.00
2019-02-27T05:59:24.319Z,100.00
2019-02-27T06:01:53.677Z,100.00
2019-02-27T06:04:25.133Z,100.00
2019-02-27T06:06:54.278Z,100.00
2019-02-27T06:09:23.643Z,100.00
2019-02-27T06:11:53.001Z,100.00
2019-02-27T06:14:22.308Z,100.00
2019-02-27T06:16:51.650Z,100.00
2019-02-27T06:19:21.117Z,100.00
2019-02-27T06:21:50.433Z,100.00
2019-02-27T06:24:19.757Z,100.00
2019-02-27T06:26:49.154Z,100.00
2019-02-27T06:29:18.446Z,100.00
2019-02-27T06:31:47.793Z,100.00
2019-02-27T06:34:17.122Z,100.00
2019-02-27T06:36:46.418Z,100.00
2019-02-27T06:39:15.735Z,100.00
2019-02-27T06:41:47.406Z,100.00
2019-02-27T06:44:16.471Z,100.00
2019-02-27T06:46:45.794Z,100.00
2019-02-27T06:49:18.315Z,100.00
2019-02-27T06:51:46.099Z,100.00
2019-02-27T06:54:18.107Z,100.00
2019-02-27T06:56:46.396Z,100.00
2019-02-27T06:59:17.898Z,100.00
2019-02-27T07:01:47.533Z,100.00
2019-02-27T07:04:17.775Z,99.41
2019-02-27T07:06:47.080Z,96.13
2019-02-27T07:09:16.366Z,94.29
2019-02-27T07:11:48.674Z,91.95
2019-02-27T07:14:16.744Z,90.84
2019-02-27T07:16:46.038Z,91.36
2019-02-27T07:19:15.874Z,90.12
2019-02-27T07:21:46.099Z,89.87
2019-02-27T07:24:15.390Z,90.98
2019-02-27T07:26:44.700Z,91.18
2019-02-27T07:29:21.363Z,91.18
2019-02-27T07:31:45.046Z,90.30
2019-02-27T07:34:14.962Z,90.88
2019-02-27T07:36:44.719Z,90.42
2019-02-27T07:39:14.063Z,90.42
2019-02-27T07:41:43.369Z,90.21
2019-02-27T07:44:12.669Z,88.95
2019-02-27T07:46:41.983Z,88.64
2019-02-27T07:49:11.281Z,89.16
2019-02-27T07:51:40.564Z,88.48
2019-02-27T07:54:09.871Z,87.76
2019-02-27T07:56:39.143Z,87.52
2019-02-27T07:59:08.436Z,87.52
2019-02-27T08:01:43.822Z,87.95
2019-02-27T08:04:09.092Z,88.82
2019-02-27T08:06:38.518Z,85.68
2019-02-27T08:09:07.976Z,85.68
2019-02-27T08:11:37.280Z,83.66
2019-02-27T08:14:06.663Z,83.32
2019-02-27T08:16:37.018Z,83.10
2019-02-27T08:19:08.943Z,83.42
2019-02-27T08:21:37.612Z,82.63
2019-02-27T08:24:07.666Z,82.15
2019-02-27T08:26:37.167Z,80.98
2019-02-27T08:29:06.783Z,82.14
2019-02-27T08:31:36.086Z,81.03
2019-02-27T08:34:05.561Z,79.25
2019-02-27T08:36:34.868Z,78.14
2019-02-27T08:39:05.596Z,76.63
2019-02-27T08:41:34.903Z,73.38
2019-02-27T08:44:04.276Z,68.45
2019-02-27T08:46:36.875Z,60.75
2019-02-27T08:49:05.059Z,58.84
2019-02-27T08:51:34.339Z,57.25
2019-02-27T08:54:03.807Z,54.07
2019-02-27T08:56:33.090Z,51.46
2019-02-27T08:59:05.041Z,54.65
2019-02-27T09:01:33.836Z,54.60
2019-02-27T09:04:03.323Z,55.73
2019-02-27T09:06:32.723Z,55.94
2019-02-27T09:09:02.119Z,51.93
2019-02-27T09:11:31.432Z,52.27
2019-02-27T09:14:00.724Z,50.01
2019-02-27T09:16:30.049Z,46.06
2019-02-27T09:18:59.335Z,44.98
2019-02-27T09:21:28.695Z,46.54
2019-02-27T09:23:57.998Z,46.18
2019-02-27T09:26:27.307Z,45.08
2019-02-27T09:28:56.610Z,44.24
2019-02-27T09:31:25.903Z,43.15
2019-02-27T09:33:55.195Z,45.40
2019-02-27T09:36:24.577Z,44.39
2019-02-27T09:38:57.350Z,45.02
2019-02-27T09:41:24.957Z,44.60
2019-02-27T09:43:54.315Z,46.50
2019-02-27T09:46:23.709Z,46.01
2019-02-27T09:48:52.997Z,47.46
2019-02-27T09:51:22.910Z,48.28
2019-02-27T09:53:52.492Z,48.72
2019-02-27T09:56:21.781Z,45.24
2019-02-27T09:58:51.082Z,43.82
2019-02-27T10:01:20.374Z,41.66
2019-02-27T10:03:51.985Z,43.09
2019-02-27T10:06:21.236Z,40.24
2019-02-27T10:08:50.530Z,37.51
2019-02-27T10:11:22.223Z,34.66
2019-02-27T10:13:50.833Z,33.58
2019-02-27T10:16:20.101Z,34.46
2019-02-27T10:18:49.404Z,34.53
2019-02-27T10:21:18.683Z,35.62
2019-02-27T10:23:47.996Z,35.77
2019-02-27T10:26:19.425Z,36.17
2019-02-27T10:28:48.296Z,39.22
2019-02-27T10:31:17.666Z,37.47
2019-02-27T10:33:46.947Z,37.23
2019-02-27T10:36:16.469Z,39.19
2019-02-27T10:38:45.734Z,39.04
2019-02-27T10:41:15.210Z,35.31
2019-02-27T10:43:44.530Z,35.29
2019-02-27T10:46:13.822Z,34.53
2019-02-27T10:48:43.109Z,33.74
2019-02-27T10:51:12.427Z,34.72
2019-02-27T10:53:41.694Z,34.29
2019-02-27T10:56:11.008Z,33.40
2019-02-27T10:58:40.316Z,32.24
2019-02-27T11:01:09.859Z,31.89
2019-02-27T11:03:39.150Z,32.26
2019-02-27T11:06:08.440Z,32.04
2019-02-27T11:08:37.767Z,28.71
2019-02-27T11:11:08.654Z,26.51
2019-02-27T11:13:38.347Z,27.25
2019-02-27T11:16:07.580Z,28.48
2019-02-27T11:18:37.183Z,30.06
2019-02-27T11:21:06.592Z,27.46
2019-02-27T11:23:35.889Z,27.02
2019-02-27T11:26:05.250Z,25.84
2019-02-27T11:28:34.566Z,25.19
2019-02-27T11:31:03.924Z,24.44
2019-02-27T11:33:33.556Z,27.67
2019-02-27T11:36:05.509Z,24.27
2019-02-27T11:38:34.243Z,23.86
2019-02-27T11:41:03.569Z,24.52
2019-02-27T11:43:32.838Z,23.48
2019-02-27T11:46:02.223Z,23.24
2019-02-27T11:48:31.569Z,24.52
2019-02-27T11:51:00.888Z,24.57
2019-02-27T11:53:30.188Z,24.57
2019-02-27T11:55:59.799Z,24.28
2019-02-27T11:58:29.108Z,23.97
2019-02-27T12:00:58.441Z,22.85
2019-02-27T12:03:27.772Z,22.64
2019-02-27T12:05:57.057Z,23.13
2019-02-27T12:08:26.868Z,23.46
2019-02-27T12:10:56.656Z,25.46
2019-02-27T12:13:26.309Z,25.68
2019-02-27T12:15:55.684Z,23.39
2019-02-27T12:18:25.109Z,21.77
2019-02-27T12:20:54.406Z,21.31
2019-02-27T12:23:23.818Z,20.78
2019-02-27T12:25:53.091Z,21.10
2019-02-27T12:28:23.288Z,21.18
2019-02-27T12:30:52.644Z,21.70
2019-02-27T12:33:21.995Z,22.13
2019-02-27T12:35:51.308Z,21.39
2019-02-27T12:38:20.677Z,20.60
2019-02-27T12:40:50.045Z,21.36
2019-02-27T12:43:19.351Z,20.37
2019-02-27T12:45:48.656Z,20.11
2019-02-27T12:48:17.959Z,20.18
2019-02-27T12:50:47.278Z,21.12
2019-02-27T12:53:20.744Z,21.67
2019-02-27T12:55:47.555Z,23.50
2019-02-27T12:58:16.839Z,21.51
2019-02-27T13:00:46.219Z,24.24
2019-02-27T13:03:15.550Z,25.82
2019-02-27T13:05:44.830Z,24.60
2019-02-27T13:08:16.410Z,22.36
2019-02-27T13:10:45.207Z,24.06
2019-02-27T13:13:14.486Z,25.74
2019-02-27T13:15:43.808Z,23.16
2019-02-27T13:18:13.334Z,21.99
2019-02-27T13:20:42.994Z,21.36
2019-02-27T13:23:13.777Z,20.21
2019-02-27T13:25:43.094Z,21.26
2019-02-27T13:28:14.567Z,20.82
2019-02-27T13:30:43.453Z,20.61
2019-02-27T13:33:12.847Z,20.82
2019-02-27T13:35:42.527Z,21.60
2019-02-27T13:38:11.806Z,23.09
2019-02-27T13:40:41.117Z,22.97
2019-02-27T13:43:10.769Z,23.27
2019-02-27T13:45:40.080Z,24.75
2019-02-27T13:48:09.389Z,26.43
2019-02-27T13:50:38.723Z,26.77
2019-02-27T13:53:08.036Z,27.49
2019-02-27T13:55:37.400Z,29.54
2019-02-27T13:58:06.811Z,29.14
2019-02-27T14:00:38.337Z,29.56
2019-02-27T14:03:12.070Z,30.96
2019-02-27T14:05:39.429Z,31.56
2019-02-27T14:08:09.623Z,29.86
2019-02-27T14:10:38.898Z,30.55
2019-02-27T14:13:09.784Z,30.60
2019-02-27T14:15:39.569Z,30.83
2019-02-27T14:18:08.879Z,31.96
2019-02-27T14:20:38.287Z,32.35
2019-02-27T14:23:08.226Z,32.07
2019-02-27T14:25:37.597Z,32.63
2019-02-27T14:28:07.347Z,32.50
2019-02-27T14:30:48.800Z,31.52
2019-02-27T14:33:19.335Z,32.19
2019-02-27T14:35:49.114Z,31.50
2019-02-27T14:38:21.910Z,30.97
2019-02-27T14:40:49.804Z,30.94
2019-02-27T14:43:19.128Z,31.70
2019-02-27T14:45:48.407Z,29.96
2019-02-27T14:48:18.156Z,30.60
2019-02-27T14:50:49.045Z,31.07
2019-02-27T14:53:19.780Z,31.63
2019-02-27T14:55:49.388Z,31.75
2019-02-27T14:58:18.706Z,30.93
2019-02-27T15:00:48.050Z,31.21
2019-02-27T15:03:17.366Z,31.16
2019-02-27T15:05:46.640Z,31.04
2019-02-27T15:08:15.983Z,31.22
2019-02-27T15:10:45.247Z,31.27
2019-02-27T15:13:14.560Z,31.57
2019-02-27T15:15:44.450Z,31.45
2019-02-27T15:18:15.647Z,31.82
2019-02-27T15:20:44.966Z,32.61
2019-02-27T15:23:14.277Z,32.49
2019-02-27T15:25:43.573Z,32.90
2019-02-27T15:28:12.884Z,33.48
2019-02-27T15:30:46.373Z,33.36
2019-02-27T15:33:13.218Z,33.67
2019-02-27T15:35:42.738Z,33.79
2019-02-27T15:38:12.462Z,32.79
2019-02-27T15:40:42.218Z,32.72
2019-02-27T15:43:11.769Z,32.89
2019-02-27T15:45:47.538Z,32.80
2019-02-27T15:48:12.545Z,32.95
2019-02-27T15:50:42.308Z,33.99
2019-02-27T15:53:14.579Z,33.98
2019-02-27T15:55:42.619Z,34.52
2019-02-27T15:58:12.010Z,34.83
2019-02-27T16:00:41.373Z,34.36
2019-02-27T16:03:11.993Z,33.92
2019-02-27T16:05:41.670Z,33.95
2019-02-27T16:08:11.140Z,34.46
2019-02-27T16:10:43.723Z,34.57
2019-02-27T16:13:11.419Z,35.06
2019-02-27T16:15:40.801Z,35.09
2019-02-27T16:18:10.063Z,35.13
2019-02-27T16:20:39.362Z,35.19
2019-02-27T16:23:08.846Z,34.98
2019-02-27T16:25:38.599Z,34.57
2019-02-27T16:28:11.330Z,34.50
2019-02-27T16:30:39.024Z,34.63
2019-02-27T16:33:08.331Z,34.74
2019-02-27T16:35:41.548Z,35.17
2019-02-27T16:38:08.695Z,35.80
2019-02-27T16:40:37.995Z,35.99
2019-02-27T16:43:10.350Z,36.02
2019-02-27T16:45:39.382Z,36.64
2019-02-27T16:48:11.097Z,35.98
2019-02-27T16:50:39.727Z,36.16
2019-02-27T16:53:09.093Z,36.45
2019-02-27T16:55:39.606Z,36.17
2019-02-27T16:58:09.350Z,37.90
2019-02-27T17:00:39.051Z,38.25
2019-02-27T17:03:12.935Z,38.80
2019-02-27T17:05:40.263Z,40.90
2019-02-27T17:08:10.683Z,39.25
2019-02-27T17:10:40.887Z,40.24
2019-02-27T17:13:14.414Z,43.31
2019-02-27T17:15:41.440Z,46.11
2019-02-27T17:18:12.808Z,48.08
2019-02-27T17:20:45.823Z,44.74
2019-02-27T17:23:13.467Z,48.18
2019-02-27T17:25:42.912Z,49.91
2019-02-27T17:28:12.344Z,49.88
2019-02-27T17:30:41.675Z,53.38
2019-02-27T17:33:11.068Z,50.89
2019-02-27T17:35:40.369Z,53.33
2019-02-27T17:38:10.912Z,52.91
2019-02-27T17:40:42.678Z,53.37
2019-02-27T17:43:12.086Z,53.45
2019-02-27T17:45:44.265Z,51.99
2019-02-27T17:48:13.223Z,54.67
2019-02-27T17:50:42.574Z,54.55
2019-02-27T17:53:11.866Z,54.24
2019-02-27T17:55:42.489Z,54.10
2019-02-27T17:58:12.003Z,53.89
2019-02-27T18:00:50.038Z,54.11
2019-02-27T18:03:17.147Z,56.01
2019-02-27T18:05:46.543Z,56.44
2019-02-27T18:08:17.069Z,56.34
2019-02-27T18:10:46.774Z,58.06
2019-02-27T18:13:16.065Z,57.61
2019-02-27T18:15:45.365Z,57.42
2019-02-27T18:18:14.903Z,58.11
2019-02-27T18:20:44.222Z,58.38
2019-02-27T18:23:13.813Z,58.98
2019-02-27T18:25:43.281Z,59.57
2019-02-27T18:28:12.564Z,60.19
2019-02-27T18:30:42.747Z,61.07
2019-02-27T18:33:14.276Z,60.58
2019-02-27T18:35:46.054Z,63.11
2019-02-27T18:38:15.461Z,63.24
2019-02-27T18:40:45.013Z,65.11
2019-02-27T18:43:14.602Z,63.89
2019-02-27T18:45:44.285Z,65.23
2019-02-27T18:48:15.141Z,65.42
2019-02-27T18:50:44.732Z,66.72
2019-02-27T18:53:14.261Z,65.94
2019-02-27T18:55:44.142Z,64.86
2019-02-27T18:58:13.632Z,65.41
2019-02-27T19:00:43.051Z,65.36
2019-02-27T19:03:13.031Z,65.81
2019-02-27T19:05:42.474Z,67.49
2019-02-27T19:08:11.918Z,68.75
2019-02-27T19:10:42.533Z,70.36
2019-02-27T19:13:12.386Z,71.43
2019-02-27T19:15:45.457Z,70.76
2019-02-27T19:18:13.139Z,72.74
2019-02-27T19:20:44.876Z,72.94
2019-02-27T19:23:17.136Z,72.87
2019-02-27T19:25:45.967Z,75.33
2019-02-27T19:28:15.278Z,76.19
2019-02-27T19:30:44.999Z,74.62
2019-02-27T19:33:14.492Z,75.64
2019-02-27T19:35:46.583Z,76.14
2019-02-27T19:38:16.013Z,75.52
2019-02-27T19:40:45.700Z,76.99
2019-02-27T19:43:15.230Z,77.37
2019-02-27T19:45:44.911Z,77.55
2019-02-27T19:48:14.495Z,78.59
2019-02-27T19:50:46.195Z,78.84
2019-02-27T19:53:15.137Z,79.31
2019-02-27T19:55:44.619Z,78.25
2019-02-27T19:58:18.167Z,78.79
2019-02-27T20:00:48.272Z,78.69
2019-02-27T20:03:17.148Z,78.34
2019-02-27T20:05:46.747Z,78.76
2019-02-27T20:08:16.203Z,79.23
2019-02-27T20:10:46.011Z,80.03
2019-02-27T20:13:15.741Z,79.54
2019-02-27T20:15:45.702Z,80.55
2019-02-27T20:18:16.569Z,80.83
2019-02-27T20:20:46.001Z,80.50
2019-02-27T20:23:15.932Z,80.73
2019-02-27T20:25:45.266Z,82.91
2019-02-27T20:28:14.585Z,83.89
2019-02-27T20:30:44.123Z,85.34
2019-02-27T20:33:13.680Z,83.60
2019-02-27T20:35:43.160Z,83.26
2019-02-27T20:38:15.984Z,83.15
2019-02-27T20:40:44.053Z,83.77
2019-02-27T20:43:13.458Z,84.79
2019-02-27T20:45:43.619Z,82.35
2019-02-27T20:48:13.234Z,80.49
2019-02-27T20:50:49.411Z,79.38
2019-02-27T20:53:20.954Z,79.95
2019-02-27T20:55:49.893Z,81.69
2019-02-27T20:58:22.079Z,82.22
2019-02-27T21:00:51.139Z,83.50
2019-02-27T21:03:21.203Z,83.43
2019-02-27T21:05:50.508Z,85.35
2019-02-27T21:08:20.360Z,86.52
2019-02-27T21:10:54.730Z,87.19
2019-02-27T21:13:21.608Z,87.72
2019-02-27T21:15:51.067Z,88.31
2019-02-27T21:18:20.435Z,89.23
2019-02-27T21:20:50.907Z,89.23
2019-02-27T21:23:20.839Z,89.34
2019-02-27T21:25:50.338Z,90.20
2019-02-27T21:28:21.313Z,90.20
2019-02-27T21:30:52.399Z,90.62
2019-02-27T21:33:22.601Z,90.24
2019-02-27T21:35:52.222Z,89.69
2019-02-27T21:38:21.949Z,90.14
2019-02-27T21:40:51.397Z,90.42
2019-02-27T21:43:25.202Z,90.80
2019-02-27T21:45:52.063Z,90.90
2019-02-27T21:48:23.558Z,90.96
2019-02-27T21:50:52.765Z,91.12
2019-02-27T21:53:22.154Z,91.74
2019-02-27T21:55:52.046Z,91.80
2019-02-27T21:58:21.601Z,92.08
2019-02-27T22:00:50.906Z,91.75
2019-02-27T22:03:20.314Z,92.46
2019-02-27T22:05:53.007Z,93.36
2019-02-27T22:08:21.174Z,92.39
2019-02-27T22:10:53.710Z,93.46
2019-02-27T22:13:28.945Z,93.93
2019-02-27T22:15:55.901Z,94.83
2019-02-27T22:18:24.216Z,95.08
2019-02-27T22:20:53.809Z,94.27
2019-02-27T22:23:23.083Z,94.33
2019-02-27T22:25:52.379Z,94.94
2019-02-27T22:28:21.647Z,94.88
2019-02-27T22:30:51.043Z,94.14
2019-02-27T22:33:23.056Z,94.66
2019-02-27T22:35:51.614Z,94.55
2019-02-27T22:38:25.815Z,94.94
2019-02-27T22:40:52.068Z,95.09
2019-02-27T22:43:21.982Z,95.42
2019-02-27T22:45:52.341Z,95.42
2019-02-27T22:48:21.625Z,96.45
2019-02-27T22:50:51.031Z,95.64
2019-02-27T22:53:20.740Z,95.72
2019-02-27T22:55:50.131Z,95.63
2019-02-27T22:58:19.783Z,95.12
2019-02-27T23:01:02.126Z,95.02
2019-02-27T23:03:48.965Z,95.18
2019-02-27T23:06:18.392Z,95.82
2019-02-27T23:08:48.956Z,94.90
2019-02-27T23:11:18.694Z,94.90
2019-02-27T23:13:48.815Z,95.48
2019-02-27T23:16:19.408Z,95.38
2019-02-27T23:18:48.769Z,95.53
2019-02-27T23:21:18.682Z,96.23
2019-02-27T23:23:48.017Z,96.45
2019-02-27T23:26:20.146Z,96.51
2019-02-27T23:28:48.466Z,96.51
2019-02-27T23:31:22.448Z,96.94
2019-02-27T23:33:48.804Z,96.56
2019-02-27T23:36:18.150Z,96.83
2019-02-27T23:38:47.452Z,96.83
2019-02-27T23:41:16.732Z,97.12
2019-02-27T23:43:46.010Z,97.32
2019-02-27T23:46:15.660Z,97.71
2019-02-27T23:48:46.659Z,97.71
2019-02-27T23:51:16.908Z,98.20
2019-02-27T23:53:46.524Z,98.61
2019-02-27T23:56:19.347Z,98.90
2019-02-27T23:58:46.826Z,98.86
